Time;durP1;ratioP1;P1;durP2;ratioP2;P2;SDS_P1;SDS_P2;PMS_P1;PMS_P2;Temp;Humidity;BMP_temperature;BMP_pressure;BME280_temperature;BME280_humidity;BME280_pressure;Samples;Min_cycle;Max_cycle;Signal;HPM_P1;HPM_P2
2021/12/08 00:01:33;;;;;;;29.42;5.47;;;;;;;8.49;100.00;97116.09;4977881;28;20046;-88
2021/12/08 00:04:00;;;;;;;32.78;5.82;;;;;;;8.35;100.00;97119.88;4988264;28;20052;-88
2021/12/08 00:06:27;;;;;;;32.00;5.75;;;;;;;8.36;100.00;97102.47;4996489;28;20156;-88
2021/12/08 00:09:05;;;;;;;36.60;8.23;;;;;;;8.36;100.00;97107.69;4996320;28;20042;-88
2021/12/08 00:14:17;;;;;;;29.48;7.40;;;;;;;8.30;100.00;97100.38;5012359;28;20058;-88
2021/12/08 00:16:44;;;;;;;30.70;7.60;;;;;;;8.41;100.00;97091.63;4976578;28;20394;-87
2021/12/08 00:19:11;;;;;;;39.97;7.47;;;;;;;8.53;100.00;97101.00;4994529;28;20058;-88
2021/12/08 00:21:38;;;;;;;25.48;7.47;;;;;;;8.28;100.00;97087.47;5002542;28;20408;-88
2021/12/08 00:24:07;;;;;;;28.00;6.32;;;;;;;8.50;100.00;97094.31;4976507;28;20528;-88
2021/12/08 00:26:35;;;;;;;30.65;6.65;;;;;;;8.33;100.00;97087.09;4982953;28;20054;-88
2021/12/08 00:29:04;;;;;;;35.58;6.53;;;;;;;8.31;100.00;97079.38;4995785;28;20540;-88
2021/12/08 00:31:33;;;;;;;31.08;6.50;;;;;;;8.53;100.00;97090.59;4987239;28;20407;-88
2021/12/08 00:34:01;;;;;;;34.17;6.72;;;;;;;8.58;100.00;97087.59;5010585;28;20491;-88
2021/12/08 00:36:39;;;;;;;27.48;5.15;;;;;;;8.47;100.00;97097.16;4995388;28;20486;-88
2021/12/08 00:39:05;;;;;;;38.95;6.63;;;;;;;8.54;100.00;97106.09;4995464;28;20065;-88
2021/12/08 00:41:32;;;;;;;28.52;7.22;;;;;;;8.54;100.00;97069.59;4985186;28;20046;-87
2021/12/08 00:43:59;;;;;;;27.23;6.85;;;;;;;8.48;100.00;97074.50;4985457;28;20081;-88
2021/12/08 00:46:26;;;;;;;36.85;6.47;;;;;;;8.70;100.00;97074.28;5004676;28;20051;-88
2021/12/08 00:48:53;;;;;;;32.72;7.22;;;;;;;8.58;100.00;97061.50;4997781;28;20511;-87
2021/12/08 00:51:20;;;;;;;36.33;6.63;;;;;;;8.61;100.00;97074.28;5005904;28;20125;-88
2021/12/08 00:53:47;;;;;;;34.47;8.05;;;;;;;8.74;100.00;97080.88;4975946;28;20050;-88
2021/12/08 00:56:15;;;;;;;34.90;6.30;;;;;;;8.39;100.00;97064.88;4987910;28;20053;-88
2021/12/08 00:58:42;;;;;;;26.27;5.40;;;;;;;8.76;100.00;97074.72;4985578;28;20507;-88
2021/12/08 01:01:27;;;;;;;36.63;8.52;;;;;;;8.45;100.00;97054.75;4993167;28;20050;-88
2021/12/08 01:03:54;;;;;;;32.10;6.05;;;;;;;8.68;100.00;97067.56;5012051;28;20077;-88
2021/12/08 01:06:21;;;;;;;38.33;5.90;;;;;;;8.54;100.00;97040.09;4994946;28;20046;-88
2021/12/08 01:08:48;;;;;;;34.35;6.22;;;;;;;8.73;100.00;97053.16;4995212;28;20140;-88
2021/12/08 01:11:18;;;;;;;41.45;6.95;;;;;;;8.58;100.00;97030.22;5006077;28;20056;-88
2021/12/08 01:13:46;;;;;;;42.58;7.30;;;;;;;8.58;100.00;97069.34;4985091;28;20083;-88
2021/12/08 01:16:14;;;;;;;30.33;7.13;;;;;;;8.56;100.00;97077.28;4993511;28;20045;-88
2021/12/08 01:18:41;;;;;;;38.75;7.50;;;;;;;8.50;100.00;97070.03;4994998;28;20049;-88
2021/12/08 01:21:10;;;;;;;37.28;7.97;;;;;;;8.64;100.00;97077.44;4989971;28;20046;-88
2021/12/08 01:23:38;;;;;;;30.48;5.55;;;;;;;8.46;100.00;97068.63;4980224;28;20061;-88
2021/12/08 01:26:07;;;;;;;29.10;7.30;;;;;;;8.25;100.00;97056.47;4995031;28;20136;-89
2021/12/08 01:28:34;;;;;;;31.42;5.43;;;;;;;8.60;100.00;97090.88;5011654;28;20060;-88
2021/12/08 01:31:01;;;;;;;28.83;5.18;;;;;;;8.33;100.00;97076.66;4993357;28;20136;-89
2021/12/08 01:33:32;;;;;;;22.92;4.63;;;;;;;8.50;100.00;97070.84;4994375;28;20057;-89
2021/12/08 01:36:04;;;;;;;26.35;5.30;;;;;;;8.32;100.00;97085.41;4994651;28;20566;-88
2021/12/08 01:38:32;;;;;;;25.02;5.75;;;;;;;8.40;100.00;97087.38;4994482;28;20419;-89
2021/12/08 01:40:59;;;;;;;26.95;4.80;;;;;;;8.33;100.00;97061.03;4993331;28;20052;-89
2021/12/08 01:43:28;;;;;;;27.20;4.38;;;;;;;8.57;100.00;97065.06;5012073;28;20515;-89
2021/12/08 01:46:05;;;;;;;22.30;4.70;;;;;;;8.59;100.00;97070.97;4994992;28;20054;-88
2021/12/08 01:48:35;;;;;;;26.88;4.95;;;;;;;8.31;100.00;97076.78;5011691;28;20080;-88
2021/12/08 01:51:14;;;;;;;22.13;4.90;;;;;;;8.38;100.00;97068.44;4990366;28;20507;-89
2021/12/08 01:53:47;;;;;;;27.42;5.57;;;;;;;8.13;100.00;97078.38;4979384;28;20052;-88
2021/12/08 01:56:15;;;;;;;30.83;6.40;;;;;;;8.22;100.00;97059.34;4994611;28;20057;-89
2021/12/08 01:58:42;;;;;;;33.40;5.53;;;;;;;8.23;100.00;97050.56;4994226;28;20053;-88
2021/12/08 02:01:12;;;;;;;24.92;4.72;;;;;;;8.42;100.00;97051.56;4991525;28;20065;-89
2021/12/08 02:03:40;;;;;;;31.95;8.57;;;;;;;8.34;100.00;97034.00;4985918;28;20054;-88
2021/12/08 02:06:10;;;;;;;32.28;6.57;;;;;;;8.32;100.00;97051.53;4975484;28;20051;-88
2021/12/08 02:08:37;;;;;;;39.97;9.52;;;;;;;8.55;100.00;97049.56;4990177;28;20060;-88
2021/12/08 02:11:05;;;;;;;23.63;6.10;;;;;;;8.36;100.00;97045.13;4989890;28;20050;-88
2021/12/08 02:13:38;;;;;;;32.05;6.13;;;;;;;8.46;100.00;97055.59;4991878;28;20050;-89
2021/12/08 02:16:14;;;;;;;;;;;;;;;8.60;100.00;97042.16;4994478;28;20066;-88
2021/12/08 02:18:44;;;;;;;27.95;7.43;;;;;;;8.41;100.00;97042.94;4994196;28;19925;-88
2021/12/08 02:21:28;;;;;;;29.58;6.43;;;;;;;8.40;100.00;97050.88;4990557;28;20068;-88
2021/12/08 02:23:57;;;;;;;33.95;7.13;;;;;;;8.43;100.00;97063.66;4984769;28;20049;-88
2021/12/08 02:26:26;;;;;;;39.38;8.43;;;;;;;8.38;100.00;97064.06;4995003;28;20377;-88
2021/12/08 02:28:54;;;;;;;38.72;7.72;;;;;;;8.45;100.00;97043.53;4977604;28;20054;-89
2021/12/08 02:31:31;;;;;;;39.10;6.32;;;;;;;8.40;100.00;97053.50;4975458;28;20853;-88
2021/12/08 02:48:04;;;;;;;27.90;5.95;;;;;;;8.30;100.00;97014.38;5001278;28;20042;-89
2021/12/08 02:50:36;;;;;;;30.30;6.38;;;;;;;7.96;100.00;96996.47;4997597;28;20054;-88
2021/12/08 02:53:04;;;;;;;29.70;5.55;;;;;;;8.16;100.00;97000.78;4989046;28;20133;-88
2021/12/08 02:55:34;;;;;;;21.00;5.60;;;;;;;8.61;100.00;97049.03;4997315;28;20508;-89
2021/12/08 02:58:03;;;;;;;31.30;7.05;;;;;;;8.45;100.00;97052.16;5015071;28;20472;-88
2021/12/08 03:00:35;;;;;;;34.60;5.95;;;;;;;8.58;100.00;97070.16;4983482;28;20046;-88
2021/12/08 03:03:06;;;;;;;28.77;6.50;;;;;;;8.36;100.00;97051.16;4981272;28;20054;-88
2021/12/08 03:05:33;;;;;;;27.90;6.78;;;;;;;8.31;100.00;97042.91;4997642;28;20053;-88
2021/12/08 03:08:01;;;;;;;27.73;6.55;;;;;;;8.27;100.00;97038.06;4997713;28;20057;-88
2021/12/08 03:10:32;;;;;;;24.40;7.65;;;;;;;8.17;100.00;97033.69;5007092;28;20049;-88
2021/12/08 03:12:59;;;;;;;24.58;6.55;;;;;;;8.33;100.00;97035.78;4977654;28;20052;-88
2021/12/08 03:15:26;;;;;;;31.38;7.22;;;;;;;8.37;100.00;97059.78;4992123;28;20113;-88
2021/12/08 03:17:53;;;;;;;32.10;6.30;;;;;;;8.23;100.00;97037.53;4996862;28;20064;-88
2021/12/08 03:20:27;;;;;;;35.85;7.13;;;;;;;8.27;100.00;97048.50;4997445;28;20488;-88
2021/12/08 03:23:00;;;;;;;40.17;7.95;;;;;;;8.44;100.00;97045.28;4977422;28;20065;-88
2021/12/08 03:25:29;;;;;;;;;;;;;;;8.62;100.00;97045.44;4995183;28;20490;-88
2021/12/08 03:28:12;;;;;;;36.58;7.07;;;;;;;8.26;100.00;97032.06;4997061;28;19921;-88
2021/12/08 03:30:52;;;;;;;22.70;6.50;;;;;;;8.43;100.00;97050.63;4995577;28;20053;-88
2021/12/08 03:33:19;;;;;;;35.75;6.70;;;;;;;8.49;100.00;97026.66;4989957;28;20046;-88
2021/12/08 03:35:48;;;;;;;24.00;5.07;;;;;;;8.35;100.00;97048.66;4996157;28;20054;-88
2021/12/08 03:38:17;;;;;;;27.20;7.00;;;;;;;8.40;100.00;97049.09;5014177;28;20104;-88
2021/12/08 03:40:45;;;;;;;34.33;6.32;;;;;;;8.33;100.00;97058.41;5013204;28;20136;-88
2021/12/08 03:43:13;;;;;;;30.10;7.32;;;;;;;8.16;100.00;97036.41;4977685;28;20056;-88
2021/12/08 03:45:45;;;;;;;37.45;7.35;;;;;;;8.20;100.00;97076.91;5002368;28;20137;-88
2021/12/08 03:48:23;;;;;;;41.28;8.43;;;;;;;8.21;100.00;97055.09;4996508;28;20129;-88
2021/12/08 03:50:51;;;;;;;40.53;7.88;;;;;;;8.30;100.00;97051.66;5010790;28;20056;-88
2021/12/08 03:53:21;;;;;;;33.13;7.50;;;;;;;8.32;100.00;97054.16;4976547;28;20066;-88
2021/12/08 03:55:51;;;;;;;33.88;7.40;;;;;;;8.47;100.00;97055.44;4993215;28;20049;-88
2021/12/08 03:58:19;;;;;;;28.88;6.82;;;;;;;8.25;100.00;97055.63;4996270;28;20050;-88
2021/12/08 04:00:49;;;;;;;26.65;5.95;;;;;;;8.15;100.00;97046.03;4993355;28;20092;-88
2021/12/08 04:03:17;;;;;;;30.00;5.70;;;;;;;8.35;100.00;97057.31;4991068;28;20424;-88
2021/12/08 04:08:45;;;;;;;24.65;5.20;;;;;;;8.11;100.00;97055.06;4991144;28;20050;-88
2021/12/08 04:11:13;;;;;;;30.52;6.15;;;;;;;8.17;100.00;97057.13;4990622;28;20046;-89
2021/12/08 04:13:46;;;;;;;28.65;6.68;;;;;;;8.40;100.00;97045.69;4981607;28;20048;-88
2021/12/08 04:16:16;;;;;;;34.58;6.72;;;;;;;8.18;100.00;97047.56;4992340;28;20149;-88
2021/12/08 04:18:44;;;;;;;33.30;7.43;;;;;;;8.30;100.00;97048.25;4993205;28;20124;-89
2021/12/08 04:21:12;;;;;;;36.70;7.88;;;;;;;8.20;100.00;97061.25;4995309;28;20054;-88
2021/12/08 04:23:40;;;;;;;32.45;6.20;;;;;;;8.12;100.00;97063.69;5013206;28;20045;-88
2021/12/08 04:26:17;;;;;;;35.45;6.32;;;;;;;8.13;100.00;97066.19;4996109;28;20054;-88
2021/12/08 04:28:44;;;;;;;36.65;7.78;;;;;;;8.08;100.00;97059.72;4995727;28;20076;-87
2021/12/08 04:31:23;;;;;;;26.95;7.35;;;;;;;7.85;100.00;97057.28;4988893;28;20404;-88
2021/12/08 04:33:54;;;;;;;22.85;6.00;;;;;;;8.03;100.00;97074.91;4986321;28;20053;-87
2021/12/08 04:36:23;;;;;;;31.67;5.55;;;;;;;8.17;100.00;97072.75;4995817;28;20203;-88
2021/12/08 04:38:55;;;;;;;24.13;4.78;;;;;;;8.15;100.00;97063.44;4994972;28;20046;-88
2021/12/08 04:41:31;;;;;;;30.70;6.13;;;;;;;8.28;100.00;97068.41;4988975;28;20050;-88
2021/12/08 04:44:08;;;;;;;34.58;6.20;;;;;;;7.97;100.00;97053.63;4976425;28;20065;-88
2021/12/08 04:52:40;;;;;;;37.33;10.20;;;;;;;8.17;100.00;97072.75;5010439;28;20529;-87
2021/12/08 05:06:20;;;;;;;25.23;5.78;;;;;;;8.28;100.00;97078.84;4994240;28;20053;-88
2021/12/08 05:08:50;;;;;;;25.23;6.03;;;;;;;7.78;100.00;97093.44;5000008;28;20475;-88
2021/12/08 05:11:30;;;;;;;28.98;6.03;;;;;;;7.49;100.00;97084.63;4993215;28;20050;-88
2021/12/08 05:14:21;;;;;;;30.88;6.82;;;;;;;7.70;100.00;97114.13;4992677;28;20073;-88
2021/12/08 05:16:53;;;;;;;29.13;5.60;;;;;;;7.73;100.00;97089.56;4991959;28;20064;-88
2021/12/08 05:19:24;;;;;;;31.40;5.53;;;;;;;7.88;100.00;97113.50;5012828;28;20133;-88
2021/12/08 05:21:57;;;;;;;27.63;5.35;;;;;;;7.77;100.00;97117.84;4975960;28;20058;-88
2021/12/08 05:24:32;;;;;;;21.08;5.95;;;;;;;7.83;100.00;97119.09;4975858;28;20050;-88
2021/12/08 05:27:16;;;;;;;29.35;4.85;;;;;;;7.90;100.00;97086.38;4975739;28;20141;-88
2021/12/08 05:29:51;;;;;;;21.50;4.47;;;;;;;7.85;100.00;97108.56;4975227;28;20503;-88
2021/12/08 05:32:20;;;;;;;20.85;4.72;;;;;;;8.10;100.00;97110.72;4976459;28;20050;-88
2021/12/08 05:34:48;;;;;;;25.55;4.95;;;;;;;7.86;100.00;97099.78;4993210;28;20058;-88
2021/12/08 05:37:17;;;;;;;25.95;4.65;;;;;;;7.94;100.00;97128.63;4994547;28;20068;-88
2021/12/08 05:39:44;;;;;;;21.42;3.88;;;;;;;7.79;100.00;97113.34;4995140;28;20492;-88
2021/12/08 05:42:29;;;;;;;17.17;3.90;;;;;;;7.68;100.00;97125.59;4992826;28;20048;-88
2021/12/08 05:44:56;;;;;;;16.58;3.95;;;;;;;7.70;100.00;97129.72;4994017;28;20049;-88
2021/12/08 05:47:27;;;;;;;25.55;3.55;;;;;;;7.72;100.00;97116.56;5012246;28;20049;-88
2021/12/08 05:49:55;;;;;;;23.55;4.68;;;;;;;7.54;100.00;97134.53;5012614;28;20053;-88
2021/12/08 05:52:23;;;;;;;22.85;3.97;;;;;;;7.68;100.00;97109.97;5010944;28;20136;-88
2021/12/08 05:54:51;;;;;;;22.35;3.67;;;;;;;7.73;100.00;97118.22;4993605;28;20050;-87
2021/12/08 05:57:32;;;;;;;21.20;4.13;;;;;;;7.90;100.00;97130.66;4985320;28;20050;-88
2021/12/08 06:00:00;;;;;;;21.05;4.97;;;;;;;7.75;100.00;97109.31;4983856;28;20072;-88
2021/12/08 06:02:33;;;;;;;24.63;5.30;;;;;;;7.98;100.00;97123.03;4985597;28;20057;-87
2021/12/08 06:05:00;;;;;;;33.15;5.78;;;;;;;7.87;100.00;97143.94;4988497;28;20456;-89
2021/12/08 06:07:27;;;;;;;23.38;5.82;;;;;;;8.03;100.00;97129.63;5006153;28;20053;-88
2021/12/08 06:09:57;;;;;;;36.45;6.65;;;;;;;8.10;100.00;97128.97;4995334;28;20067;-88
2021/12/08 06:12:25;;;;;;;23.02;4.68;;;;;;;8.03;100.00;97112.22;4994071;28;20136;-88
2021/12/08 06:14:56;;;;;;;26.42;5.47;;;;;;;8.06;100.00;97111.13;4994440;28;20049;-88
2021/12/08 06:17:27;;;;;;;24.35;4.80;;;;;;;8.06;100.00;97105.94;4994844;28;20411;-89
2021/12/08 06:19:54;;;;;;;19.08;5.55;;;;;;;7.67;100.00;97143.00;4989559;28;20432;-88
2021/12/08 06:22:29;;;;;;;25.08;5.80;;;;;;;7.52;100.00;97145.06;4994053;28;20490;-87
2021/12/08 06:24:56;;;;;;;23.90;4.00;;;;;;;7.52;100.00;97126.84;4989030;28;20064;-87
2021/12/08 06:27:27;;;;;;;15.88;3.67;;;;;;;7.32;100.00;97136.31;4989702;28;20046;-87
2021/12/08 06:30:00;;;;;;;29.38;5.15;;;;;;;7.49;100.00;97127.13;4986700;28;20057;-87
2021/12/08 06:32:27;;;;;;;31.42;7.10;;;;;;;7.45;100.00;97132.69;4987014;28;20052;-87
2021/12/08 06:34:57;;;;;;;31.98;4.95;;;;;;;7.61;100.00;97143.50;5007264;28;20055;-87
2021/12/08 06:37:31;;;;;;;25.40;4.85;;;;;;;7.73;100.00;97133.84;4989926;28;20063;-88
2021/12/08 06:40:17;;;;;;;30.60;5.45;;;;;;;7.80;100.00;97148.00;4995931;28;20075;-88
2021/12/08 06:42:47;;;;;;;29.95;5.45;;;;;;;7.53;100.00;97140.72;4996692;28;20056;-88
2021/12/08 06:45:19;;;;;;;27.60;5.30;;;;;;;7.70;100.00;97140.16;4997244;28;20093;-87
2021/12/08 06:47:49;;;;;;;29.95;5.63;;;;;;;7.70;100.00;97141.91;5015225;28;20559;-87
2021/12/08 06:50:24;;;;;;;16.77;4.78;;;;;;;7.86;100.00;97149.25;5013750;28;20052;-90
2021/12/08 06:52:54;;;;;;;18.35;5.15;;;;;;;7.66;100.00;97164.78;5005734;28;20046;-88
2021/12/08 06:55:28;;;;;;;13.18;3.47;;;;;;;7.72;100.00;97161.69;4989599;28;20057;-87
2021/12/08 06:58:00;;;;;;;26.30;4.63;;;;;;;7.65;100.00;97154.47;4995054;28;20050;-91
2021/12/08 07:01:10;;;;;;;24.65;6.78;;;;;;;7.61;100.00;97164.31;4989875;28;20538;-85
2021/12/08 07:06:58;;;;;;;26.63;5.65;;;;;;;7.80;100.00;97153.22;4997202;28;20060;-85
2021/12/08 07:09:45;;;;;;;29.88;9.48;;;;;;;7.98;100.00;97156.06;4985971;28;20496;-88
2021/12/08 07:12:24;;;;;;;29.25;6.13;;;;;;;7.72;100.00;97161.69;4996745;28;20146;-87
2021/12/08 07:15:00;;;;;;;30.02;5.18;;;;;;;7.75;100.00;97155.38;4995461;28;20054;-87
2021/12/08 07:17:33;;;;;;;29.33;5.00;;;;;;;7.54;100.00;97181.41;4988702;28;20054;-87
2021/12/08 07:20:15;;;;;;;15.05;2.63;;;;;;;7.23;100.00;97179.50;5006121;28;20070;-87
2021/12/08 07:22:49;;;;;;;20.05;4.40;;;;;;;7.45;100.00;97187.38;4993220;28;20042;-87
2021/12/08 07:25:18;;;;;;;20.98;4.05;;;;;;;7.47;100.00;97183.69;4990150;28;20121;-87
2021/12/08 07:27:46;;;;;;;25.90;4.57;;;;;;;7.64;100.00;97190.13;4989957;28;20493;-86
2021/12/08 07:30:19;;;;;;;23.08;5.35;;;;;;;7.51;100.00;97142.63;4987572;28;20080;-87
2021/12/08 07:32:46;;;;;;;;;;;;;;;7.68;100.00;97204.53;4989182;28;20056;-88
2021/12/08 07:35:39;;;;;;;28.20;6.70;;;;;;;7.34;100.00;97137.00;4991025;28;20008;-88
2021/12/08 07:38:09;;;;;;;24.97;4.13;;;;;;;7.54;100.00;97190.06;4970458;28;20081;-89
2021/12/08 07:40:42;;;;;;;19.60;4.53;;;;;;;7.63;100.00;97195.44;4996791;28;20060;-88
2021/12/08 07:43:13;;;;;;;20.15;4.95;;;;;;;7.55;100.00;97181.28;4996982;28;20064;-89
2021/12/08 07:46:02;;;;;;;20.05;5.55;;;;;;;7.74;100.00;97198.81;4996936;28;20128;-88
2021/12/08 07:48:38;;;;;;;27.83;5.38;;;;;;;7.60;100.00;97186.13;4997197;28;20444;-87
2021/12/08 07:51:37;;;;;;;21.63;5.03;;;;;;;7.93;100.00;97208.56;4983525;28;20050;-86
2021/12/08 07:54:07;;;;;;;18.08;4.82;;;;;;;7.89;100.00;97211.53;4987680;28;20085;-86
2021/12/08 07:56:36;;;;;;;17.75;4.68;;;;;;;7.71;100.00;97226.91;4993091;28;20054;-86
2021/12/08 07:59:06;;;;;;;12.98;3.35;;;;;;;7.87;100.00;97224.69;4987832;28;20068;-88
2021/12/08 08:01:36;;;;;;;12.73;3.90;;;;;;;7.74;100.00;97234.47;4985359;28;20860;-87
2021/12/08 08:04:06;;;;;;;17.23;3.25;;;;;;;7.86;100.00;97232.59;4985303;28;20054;-89
2021/12/08 08:06:36;;;;;;;16.02;3.40;;;;;;;7.93;100.00;97212.91;4986127;28;20053;-87
2021/12/08 08:09:08;;;;;;;19.20;3.47;;;;;;;8.14;100.00;97237.22;4996433;28;20056;-87
2021/12/08 08:11:41;;;;;;;19.30;4.95;;;;;;;8.01;100.00;97240.97;4987136;28;20050;-87
2021/12/08 08:14:11;;;;;;;20.92;4.20;;;;;;;7.95;100.00;97208.41;4976361;28;20056;-87
2021/12/08 08:16:39;;;;;;;16.52;3.85;;;;;;;7.79;100.00;97258.31;4977044;28;20124;-87
2021/12/08 08:19:12;;;;;;;17.00;4.22;;;;;;;7.67;100.00;97259.34;4976847;28;20081;-87
2021/12/08 08:21:51;;;;;;;17.13;3.47;;;;;;;7.78;100.00;97236.69;4976002;28;20061;-87
2021/12/08 08:24:18;;;;;;;21.60;4.05;;;;;;;7.88;100.00;97244.56;4976644;28;20046;-87
2021/12/08 08:26:49;;;;;;;14.15;3.63;;;;;;;7.78;100.00;97269.72;4976597;28;20133;-87
2021/12/08 08:29:16;;;;;;;17.40;3.38;;;;;;;7.71;100.00;97253.75;4976425;28;20058;-87
2021/12/08 08:31:55;;;;;;;16.13;2.95;;;;;;;8.01;100.00;97265.22;4983014;28;20061;-85
2021/12/08 08:34:22;;;;;;;12.10;3.03;;;;;;;7.85;100.00;97270.03;4990778;28;20052;-86
2021/12/08 08:36:50;;;;;;;11.13;2.42;;;;;;;8.01;100.00;97282.66;4996220;28;20050;-87
2021/12/08 08:39:26;;;;;;;13.18;2.72;;;;;;;7.70;100.00;97272.09;4995921;28;20049;-87
2021/12/08 08:42:01;;;;;;;17.75;3.25;;;;;;;7.86;100.00;97293.38;4985838;28;20404;-87
2021/12/08 08:44:39;;;;;;;14.65;3.58;;;;;;;7.94;100.00;97296.16;4976177;28;20448;-87
2021/12/08 08:47:15;;;;;;;17.52;4.25;;;;;;;7.93;100.00;97286.69;4975591;28;20050;-86
2021/12/08 08:49:45;;;;;;;26.70;4.35;;;;;;;7.87;100.00;97295.00;5005033;28;20570;-88
2021/12/08 08:52:32;;;;;;;16.75;4.05;;;;;;;7.78;100.00;97280.94;4985841;28;20134;-87
2021/12/08 08:55:10;;;;;;;20.75;4.03;;;;;;;8.12;100.00;97295.59;4993303;28;20042;-87
2021/12/08 08:57:38;;;;;;;20.17;4.20;;;;;;;7.94;100.00;97287.53;4975728;28;20073;-87
2021/12/08 09:00:47;;;;;;;21.55;3.85;;;;;;;7.87;100.00;97309.81;4995249;28;20056;-87
2021/12/08 09:03:20;;;;;;;14.90;3.63;;;;;;;8.03;100.00;97305.00;4984941;28;20088;-88
2021/12/08 09:05:56;;;;;;;11.45;2.85;;;;;;;7.72;100.00;97294.47;4980798;28;20428;-88
2021/12/08 09:08:25;;;;;;;14.55;3.05;;;;;;;7.91;100.00;97309.41;4991064;28;20054;-88
2021/12/08 09:11:06;;;;;;;13.68;3.63;;;;;;;7.91;100.00;97304.22;4974354;28;20051;-88
2021/12/08 09:13:35;;;;;;;14.93;2.92;;;;;;;7.92;100.00;97323.28;4986682;28;20060;-87
2021/12/08 09:16:08;;;;;;;15.80;3.92;;;;;;;7.87;100.00;97315.84;4987431;28;20045;-88
2021/12/08 09:18:55;;;;;;;15.13;3.80;;;;;;;7.85;100.00;97335.97;4985283;28;20101;-88
2021/12/08 09:21:35;;;;;;;15.30;3.00;;;;;;;7.79;100.00;97324.28;4976342;28;20050;-87
2021/12/08 09:24:20;;;;;;;13.18;3.22;;;;;;;7.84;100.00;97333.50;4975105;28;20042;-88
2021/12/08 09:26:52;;;;;;;14.13;3.08;;;;;;;7.89;100.00;97331.34;4984523;28;20471;-87
2021/12/08 09:29:26;;;;;;;16.80;3.72;;;;;;;7.92;100.00;97331.94;4991963;28;20053;-88
2021/12/08 09:31:57;;;;;;;14.00;2.80;;;;;;;7.96;100.00;97343.75;4991074;28;20050;-87
2021/12/08 09:34:31;;;;;;;20.33;3.58;;;;;;;7.86;100.00;97328.97;4989584;28;20050;-88
2021/12/08 09:37:03;;;;;;;14.95;3.00;;;;;;;8.15;100.00;97324.03;4994235;28;20056;-86
2021/12/08 09:39:43;;;;;;;16.13;3.33;;;;;;;8.30;100.00;97337.56;5004415;28;20060;-86
2021/12/08 09:42:20;;;;;;;13.95;5.18;;;;;;;8.43;100.00;97350.44;4991640;28;20056;-86
2021/12/08 09:44:51;;;;;;;17.02;3.40;;;;;;;8.38;100.00;97345.59;4987183;28;20050;-86
2021/12/08 09:47:18;;;;;;;16.90;3.53;;;;;;;8.41;100.00;97345.34;5011812;28;20053;-88
2021/12/08 09:49:47;;;;;;;22.20;3.38;;;;;;;8.24;100.00;97354.53;4994031;28;20054;-88
2021/12/08 09:52:17;;;;;;;16.10;3.70;;;;;;;8.50;100.00;97344.59;5011368;28;20071;-88
2021/12/08 09:54:44;;;;;;;16.33;3.95;;;;;;;8.46;100.00;97365.81;4982313;28;20133;-87
2021/12/08 09:57:13;;;;;;;15.57;3.33;;;;;;;8.07;100.00;97362.91;4985443;28;20054;-88
2021/12/08 09:59:47;;;;;;;21.95;4.53;;;;;;;8.28;100.00;97363.75;4986951;28;20385;-88
2021/12/08 10:02:24;;;;;;;21.40;4.95;;;;;;;8.52;100.00;97383.59;4987860;28;20064;-88
2021/12/08 10:04:51;;;;;;;16.92;4.28;;;;;;;8.33;100.00;97389.44;4985696;28;20042;-88
2021/12/08 10:07:19;;;;;;;16.13;3.83;;;;;;;8.32;100.00;97379.94;4994118;28;20056;-88
2021/12/08 10:09:49;;;;;;;18.30;5.57;;;;;;;8.43;100.00;97390.38;5007336;28;20060;-88
2021/12/08 10:12:16;;;;;;;17.60;3.75;;;;;;;8.61;100.00;97382.00;4984388;28;20061;-88
2021/12/08 10:14:46;;;;;;;16.48;4.43;;;;;;;8.58;100.00;97400.50;4985391;28;20498;-88
2021/12/08 10:17:14;;;;;;;20.90;3.78;;;;;;;8.46;100.00;97400.53;4992884;28;20796;-87
2021/12/08 10:19:43;;;;;;;20.98;3.83;;;;;;;8.65;100.00;97392.03;4985409;28;20108;-89
2021/12/08 10:22:21;;;;;;;16.45;3.97;;;;;;;8.47;100.00;97381.34;4984119;28;20049;-87
2021/12/08 10:25:18;;;;;;;20.15;3.85;;;;;;;8.64;100.00;97382.56;4993847;28;20046;-87
2021/12/08 10:28:03;;;;;;;17.13;3.97;;;;;;;8.59;100.00;97402.13;4982271;28;20443;-88
2021/12/08 10:30:32;;;;;;;16.08;3.78;;;;;;;8.58;100.00;97401.31;4982788;28;20488;-88
2021/12/08 10:33:00;;;;;;;21.10;3.38;;;;;;;8.43;100.00;97386.94;5003584;28;20137;-88
2021/12/08 10:35:45;;;;;;;14.55;3.70;;;;;;;8.43;100.00;97390.38;4974143;28;20054;-88
2021/12/08 10:38:15;;;;;;;15.50;3.97;;;;;;;8.61;100.00;97390.63;4974893;28;20054;-87
2021/12/08 10:40:56;;;;;;;21.42;3.83;;;;;;;8.75;100.00;97376.47;5001964;28;20841;-87
2021/12/08 10:43:23;;;;;;;17.00;3.83;;;;;;;8.59;100.00;97405.59;5000634;28;20054;-88
2021/12/08 10:46:09;;;;;;;16.60;3.30;;;;;;;8.70;100.00;97421.16;4981685;28;20133;-87
2021/12/08 10:48:43;;;;;;;20.42;3.28;;;;;;;8.49;100.00;97420.34;4980924;28;20133;-87
2021/12/08 10:54:30;;;;;;;7.28;2.15;;;;;;;8.24;100.00;97421.47;5001614;28;20049;-88
2021/12/08 10:57:17;;;;;;;17.90;3.95;;;;;;;8.20;100.00;97428.72;4996688;28;20056;-87
2021/12/08 11:00:09;;;;;;;13.48;2.55;;;;;;;7.91;100.00;97457.06;4983159;28;20062;-90
2021/12/08 11:02:41;;;;;;;11.70;2.33;;;;;;;7.50;100.00;97422.09;4983133;28;20068;-89
2021/12/08 11:05:42;;;;;;;11.82;2.72;;;;;;;7.60;100.00;97457.72;4989025;28;20530;-88
2021/12/08 11:08:13;;;;;;;9.57;1.67;;;;;;;7.72;100.00;97455.09;4985981;28;20053;-85
2021/12/08 11:10:52;;;;;;;10.93;2.15;;;;;;;7.74;100.00;97469.66;4978708;28;20381;-86
2021/12/08 11:13:23;;;;;;;19.42;3.45;;;;;;;7.29;100.00;97446.22;4985421;28;20053;-86
2021/12/08 11:16:00;;;;;;;16.60;2.67;;;;;;;7.41;100.00;97470.50;4994743;28;20129;-86
2021/12/08 11:18:30;;;;;;;14.43;3.22;;;;;;;7.59;100.00;97461.25;4977372;28;20066;-85
2021/12/08 11:21:05;;;;;;;10.45;2.70;;;;;;;7.49;100.00;97456.88;4985224;28;20054;-86
2021/12/08 11:23:42;;;;;;;10.45;2.22;;;;;;;7.67;100.00;97465.88;4991994;28;20046;-85
2021/12/08 11:26:23;;;;;;;15.32;2.95;;;;;;;7.77;100.00;97473.78;4981055;28;20052;-85
2021/12/08 11:29:20;;;;;;;7.50;1.77;;;;;;;8.02;100.00;97479.69;4983292;28;20058;-85
2021/12/08 11:32:04;;;;;;;7.72;1.95;;;;;;;7.93;100.00;97466.44;4976105;28;20054;-85
2021/12/08 11:34:41;;;;;;;;;;;;;;;8.19;100.00;97492.19;4993675;28;20050;-86
2021/12/08 11:37:16;;;;;;;9.80;2.65;;;;;;;8.12;100.00;97472.78;4993779;28;19929;-86
2021/12/08 11:39:47;;;;;;;11.53;2.73;;;;;;;8.18;100.00;97491.38;4993448;28;20050;-86
2021/12/08 11:42:19;;;;;;;18.70;2.10;;;;;;;8.19;100.00;97481.78;5018166;28;20500;-86
2021/12/08 11:44:53;;;;;;;15.48;2.90;;;;;;;7.91;100.00;97483.94;4987699;28;20096;-86
2021/12/08 11:47:28;;;;;;;14.43;3.17;;;;;;;8.10;100.00;97480.72;4989154;28;20052;-86
2021/12/08 11:50:06;;;;;;;15.48;3.90;;;;;;;8.20;100.00;97482.59;4980062;28;20483;-86
2021/12/08 11:52:33;;;;;;;15.70;2.80;;;;;;;8.30;100.00;97491.34;4986524;28;20050;-86
2021/12/08 11:55:03;;;;;;;16.25;3.17;;;;;;;8.21;100.00;97510.31;5012390;28;20046;-86
2021/12/08 11:57:37;;;;;;;10.45;2.40;;;;;;;8.02;100.00;97505.72;4982238;28;20408;-86
2021/12/08 12:00:10;;;;;;;9.85;2.58;;;;;;;8.29;100.00;97508.78;4990494;28;20137;-86
2021/12/08 12:02:53;;;;;;;8.13;2.10;;;;;;;8.33;100.00;97514.56;4984058;28;20058;-86
2021/12/08 12:05:24;;;;;;;12.13;2.50;;;;;;;8.13;100.00;97488.31;4981785;28;20042;-86
2021/12/08 12:07:52;;;;;;;16.50;3.83;;;;;;;8.15;100.00;97509.84;4994838;28;20365;-86
2021/12/08 12:10:21;;;;;;;10.18;2.55;;;;;;;8.31;100.00;97509.47;4984023;28;20485;-85
2021/12/08 12:12:53;;;;;;;17.42;3.10;;;;;;;8.20;100.00;97509.50;4980823;28;20054;-85
2021/12/08 12:15:22;;;;;;;18.60;4.18;;;;;;;8.13;100.00;97513.56;4976840;28;20471;-86
2021/12/08 12:17:49;;;;;;;14.50;2.88;;;;;;;7.93;100.00;97476.88;4993204;28;20064;-86
2021/12/08 12:20:44;;;;;;;17.65;2.70;;;;;;;8.33;100.00;97506.75;4976871;28;20532;-86
2021/12/08 12:23:26;;;;;;;13.40;2.78;;;;;;;8.28;100.00;97520.13;4988715;28;20053;-85
2021/12/08 12:26:20;;;;;;;14.48;3.38;;;;;;;8.34;100.00;97518.84;4987717;28;20570;-85
2021/12/08 12:28:47;;;;;;;9.25;2.60;;;;;;;8.62;100.00;97521.84;4996427;28;20050;-86
2021/12/08 12:31:20;;;;;;;15.57;3.17;;;;;;;8.49;100.00;97529.84;4981010;28;20045;-88
2021/12/08 12:33:50;;;;;;;12.60;2.85;;;;;;;8.26;100.00;97513.41;5003664;28;20050;-87
2021/12/08 12:36:18;;;;;;;15.35;3.60;;;;;;;8.41;100.00;97517.41;4984176;28;20058;-87